Terminal Aerodrome Forecast
Issued by NWS

Home | Current Version | Previous Version | Graphics & Text | Print | Product List | Glossary On
Versions: 1 2 3 4 5 6 7 8 9 10 11 12 13 14 15 16 17 18 19 20 21
516
FTUS43 KPAH 162331
TAFCGI
TAF
KCGI 162331Z 1700/1724 33006KT P6SM OVC035
     FM171200 31004KT P6SM SCT025
     FM172000 23005KT P6SM FEW025=

USA.gov is the U.S. government's official web portal to all federal, state and local government web resources and services.